createdAt,value
2018-04-19T00:01:47.264Z,14.60
2018-04-19T00:04:13.265Z,14.60
2018-04-19T00:06:39.377Z,14.70
2018-04-19T00:09:05.366Z,14.70
2018-04-19T00:11:31.362Z,14.60
2018-04-19T00:13:57.476Z,14.50
2018-04-19T00:16:24.203Z,14.50
2018-04-19T00:18:50.944Z,14.60
2018-04-19T00:21:17.724Z,14.60
2018-04-19T00:23:43.714Z,14.60
2018-04-19T00:26:10.478Z,14.60
2018-04-19T00:28:36.489Z,14.60
2018-04-19T00:31:03.201Z,14.60
2018-04-19T00:33:29.940Z,14.50
2018-04-19T00:35:55.918Z,14.50
2018-04-19T00:38:22.045Z,14.50
2018-04-19T00:40:48.024Z,14.40
2018-04-19T00:43:14.864Z,14.40
2018-04-19T00:45:41.689Z,14.40
2018-04-19T00:48:07.693Z,14.30
2018-04-19T00:50:33.676Z,14.40
2018-04-19T00:53:05.843Z,14.40
2018-04-19T00:55:31.877Z,14.50
2018-04-19T00:57:57.868Z,14.40
2018-04-19T01:00:24.597Z,14.20
2018-04-19T01:02:50.672Z,14.20
2018-04-19T01:05:16.648Z,14.30
2018-04-19T01:07:42.613Z,14.30
2018-04-19T01:10:08.664Z,14.30
2018-04-19T01:12:34.629Z,14.10
2018-04-19T01:15:00.592Z,14.30
2018-04-19T01:17:26.558Z,14.30
2018-04-19T01:19:52.537Z,14.30
2018-04-19T01:22:18.516Z,14.10
2018-04-19T01:24:44.581Z,14.20
2018-04-19T01:27:10.611Z,14.20
2018-04-19T01:29:36.600Z,14.10
2018-04-19T01:32:03.317Z,14.10
2018-04-19T01:34:29.280Z,14.10
2018-04-19T01:36:55.277Z,14.00
2018-04-19T01:39:21.280Z,14.00
2018-04-19T01:41:47.291Z,14.00
2018-04-19T01:44:13.261Z,13.70
2018-04-19T01:46:39.387Z,14.10
2018-04-19T01:49:06.096Z,13.80
2018-04-19T01:51:32.097Z,13.80
2018-04-19T01:53:58.107Z,13.90
2018-04-19T01:56:24.102Z,14.10
2018-04-19T01:58:50.089Z,14.10
2018-04-19T02:01:16.207Z,14.00
2018-04-19T02:03:42.269Z,13.90
2018-04-19T02:06:08.997Z,13.80
2018-04-19T02:08:35.701Z,13.90
2018-04-19T02:11:01.698Z,13.80
2018-04-19T02:13:27.701Z,13.90
2018-04-19T02:15:54.433Z,14.00
2018-04-19T02:18:21.144Z,13.90
2018-04-19T02:20:47.105Z,13.90
2018-04-19T02:23:13.084Z,13.90
2018-04-19T02:25:39.033Z,13.80
2018-04-19T02:28:05.754Z,13.90
2018-04-19T02:30:31.714Z,13.90
2018-04-19T02:32:57.701Z,14.00
2018-04-19T02:35:24.436Z,13.90
2018-04-19T02:37:50.664Z,13.90
2018-04-19T02:40:16.625Z,13.90
2018-04-19T02:42:42.634Z,13.90
2018-04-19T02:45:09.354Z,13.70
2018-04-19T02:47:35.361Z,13.70
2018-04-19T02:50:01.347Z,13.60
2018-04-19T02:52:27.345Z,13.70
2018-04-19T02:54:53.329Z,13.80
2018-04-19T02:57:19.312Z,13.80
2018-04-19T02:59:45.307Z,13.80
2018-04-19T03:02:12.033Z,13.70
2018-04-19T03:04:39.489Z,13.50
2018-04-19T03:07:05.461Z,13.60
2018-04-19T03:09:31.462Z,13.50
2018-04-19T03:11:58.176Z,13.70
2018-04-19T03:14:24.156Z,13.70
2018-04-19T03:16:50.114Z,13.70
2018-04-19T03:19:16.116Z,13.80
2018-04-19T03:21:42.094Z,13.70
2018-04-19T03:24:08.825Z,13.70
2018-04-19T03:26:35.537Z,13.70
2018-04-19T03:29:01.586Z,13.70
2018-04-19T03:31:27.510Z,13.80
2018-04-19T03:33:54.235Z,13.80
2018-04-19T03:36:20.189Z,13.80
2018-04-19T03:38:46.165Z,13.80
2018-04-19T03:41:12.114Z,13.80
2018-04-19T03:43:38.832Z,13.80
2018-04-19T03:46:04.805Z,13.80
2018-04-19T03:48:30.824Z,13.70
2018-04-19T03:50:56.808Z,13.70
2018-04-19T03:53:23.552Z,13.80
2018-04-19T03:55:49.521Z,13.80
2018-04-19T03:58:15.517Z,13.80
2018-04-19T04:00:41.503Z,13.80
2018-04-19T04:03:07.476Z,13.70
2018-04-19T04:05:33.481Z,13.60
2018-04-19T04:08:00.204Z,13.70
2018-04-19T04:10:26.206Z,13.70
2018-04-19T04:12:52.245Z,13.80
2018-04-19T04:15:18.242Z,13.60
2018-04-19T04:17:50.466Z,13.60
2018-04-19T04:20:23.275Z,13.70
2018-04-19T04:22:55.441Z,13.70
2018-04-19T04:25:21.449Z,13.60
2018-04-19T04:27:48.189Z,13.50
2018-04-19T04:30:14.197Z,13.50
2018-04-19T04:32:40.952Z,13.60
2018-04-19T04:35:06.965Z,13.60
2018-04-19T04:37:34.027Z,13.80
2018-04-19T04:40:00.265Z,13.90
2018-04-19T04:42:26.244Z,13.80
2018-04-19T04:44:52.228Z,13.70
2018-04-19T04:47:18.221Z,13.70
2018-04-19T04:49:44.956Z,13.80
2018-04-19T04:52:11.674Z,13.70
2018-04-19T04:54:38.415Z,13.80
2018-04-19T04:57:04.388Z,13.80
2018-04-19T04:59:30.393Z,13.80
2018-04-19T05:01:57.102Z,13.90
2018-04-19T05:04:23.962Z,13.90
2018-04-19T05:06:50.697Z,13.90
2018-04-19T05:09:16.717Z,13.90
2018-04-19T05:11:42.705Z,13.80
2018-04-19T05:14:08.685Z,13.40
2018-04-19T05:16:34.664Z,13.70
2018-04-19T05:19:00.626Z,13.80
2018-04-19T05:21:26.620Z,13.80
2018-04-19T05:23:52.589Z,13.90
2018-04-19T05:26:18.647Z,13.60
2018-04-19T05:28:45.326Z,14.00
2018-04-19T05:31:12.068Z,14.10
2018-04-19T05:33:38.790Z,14.20
2018-04-19T05:36:04.777Z,14.20
2018-04-19T05:38:31.056Z,14.20
2018-04-19T05:40:57.081Z,14.20
2018-04-19T05:43:23.808Z,14.20
2018-04-19T05:45:49.801Z,14.20
2018-04-19T05:48:15.772Z,14.30
2018-04-19T05:50:44.086Z,14.30
2018-04-19T05:53:12.015Z,14.30
2018-04-19T05:55:38.037Z,14.30
2018-04-19T05:58:04.757Z,14.40
2018-04-19T06:00:30.752Z,14.40
2018-04-19T06:02:56.753Z,14.10
2018-04-19T06:05:22.729Z,14.50
2018-04-19T06:07:48.724Z,14.60
2018-04-19T06:10:14.732Z,14.70
2018-04-19T06:12:40.741Z,14.70
2018-04-19T06:15:06.725Z,14.70
2018-04-19T06:17:32.733Z,14.80
2018-04-19T06:19:58.709Z,14.90
2018-04-19T06:22:24.724Z,14.90
2018-04-19T06:24:50.755Z,14.90
2018-04-19T06:27:17.493Z,15.00
2018-04-19T06:29:43.468Z,15.00
2018-04-19T06:32:09.469Z,15.10
2018-04-19T06:34:35.441Z,15.20
2018-04-19T06:37:02.180Z,15.30
2018-04-19T06:39:28.905Z,15.40
2018-04-19T06:41:54.909Z,15.40
2018-04-19T06:44:20.925Z,15.50
2018-04-19T06:46:47.709Z,15.60
2018-04-19T06:49:14.438Z,15.70
2018-04-19T06:51:41.174Z,15.70
2018-04-19T06:54:07.937Z,15.80
2018-04-19T06:56:34.658Z,15.80
2018-04-19T06:59:00.628Z,15.80
2018-04-19T07:01:26.592Z,15.80
2018-04-19T07:03:52.564Z,15.80
2018-04-19T07:06:18.534Z,15.90
2018-04-19T07:08:44.513Z,15.90
2018-04-19T07:11:10.495Z,16.00
2018-04-19T07:13:36.496Z,16.00
2018-04-19T07:16:02.494Z,16.10
2018-04-19T07:18:28.497Z,16.10
2018-04-19T07:20:54.465Z,16.10
2018-04-19T07:23:20.440Z,16.30
2018-04-19T07:25:46.453Z,16.50
2018-04-19T07:28:12.401Z,16.40
2018-04-19T07:30:38.405Z,16.50
2018-04-19T07:33:05.102Z,16.60
2018-04-19T07:35:31.093Z,16.60
2018-04-19T07:37:57.052Z,16.60
2018-04-19T07:40:23.041Z,16.70
2018-04-19T07:42:49.005Z,16.70
2018-04-19T07:45:14.996Z,16.70
2018-04-19T07:47:40.965Z,16.90
2018-04-19T07:50:07.717Z,17.10
2018-04-19T07:52:34.432Z,17.10
2018-04-19T07:55:00.409Z,17.10
2018-04-19T07:57:26.377Z,17.20
2018-04-19T07:59:52.365Z,17.20
2018-04-19T08:02:18.337Z,17.20
2018-04-19T08:04:45.077Z,17.50
2018-04-19T08:07:11.793Z,17.50
2018-04-19T08:09:37.773Z,17.50
2018-04-19T08:12:03.751Z,17.70
2018-04-19T08:14:29.740Z,17.80
2018-04-19T08:16:55.797Z,17.90
2018-04-19T08:19:21.769Z,17.90
2018-04-19T08:21:47.762Z,17.90
2018-04-19T08:24:14.473Z,17.90
2018-04-19T08:26:40.458Z,17.90
2018-04-19T08:29:06.462Z,17.90
2018-04-19T08:31:32.468Z,18.10
2018-04-19T08:33:59.290Z,18.40
2018-04-19T08:36:26.769Z,18.50
2018-04-19T08:38:53.520Z,18.50
2018-04-19T08:41:19.553Z,18.60
2018-04-19T08:43:45.537Z,18.60
2018-04-19T08:46:11.560Z,18.70
2018-04-19T08:48:37.513Z,18.70
2018-04-19T08:51:03.536Z,18.90
2018-04-19T08:53:29.529Z,19.00
2018-04-19T08:55:55.505Z,19.00
2018-04-19T08:58:21.472Z,19.00
2018-04-19T09:00:47.580Z,19.10
2018-04-19T09:03:14.157Z,19.10
2018-04-19T09:05:41.754Z,19.10
2018-04-19T09:08:07.751Z,19.30
2018-04-19T09:10:34.481Z,19.40
2018-04-19T09:13:01.226Z,19.40
2018-04-19T09:15:27.944Z,19.60
2018-04-19T09:17:53.946Z,19.50
2018-04-19T09:20:19.925Z,19.50
2018-04-19T09:22:45.937Z,19.90
2018-04-19T09:25:12.669Z,19.80
2018-04-19T09:27:39.414Z,19.80
2018-04-19T09:30:06.156Z,19.80
2018-04-19T09:32:32.913Z,19.90
2018-04-19T09:34:58.937Z,19.90
2018-04-19T09:37:24.947Z,20.00
2018-04-19T09:39:51.705Z,20.20
2018-04-19T09:42:17.697Z,20.10
2018-04-19T09:44:44.428Z,20.30
2018-04-19T09:47:10.425Z,20.30
2018-04-19T09:49:36.422Z,20.20
2018-04-19T09:52:02.413Z,20.50
2018-04-19T09:54:29.177Z,20.60
2018-04-19T09:56:55.149Z,20.60
2018-04-19T09:59:21.186Z,20.70
2018-04-19T10:01:51.114Z,20.80
2018-04-19T10:04:24.084Z,21.10
2018-04-19T10:06:50.057Z,21.00
2018-04-19T10:09:16.049Z,21.00
2018-04-19T10:11:42.748Z,21.10
2018-04-19T10:14:08.777Z,21.10
2018-04-19T10:16:35.895Z,21.20
2018-04-19T10:19:02.005Z,21.20
2018-04-19T10:21:28.044Z,21.40
2018-04-19T10:23:54.063Z,21.40
2018-04-19T10:26:20.068Z,21.60
2018-04-19T10:28:46.045Z,21.70
2018-04-19T10:31:12.060Z,21.90
2018-04-19T10:33:38.053Z,22.00
2018-04-19T10:36:04.037Z,22.00
2018-04-19T10:38:30.012Z,22.00
2018-04-19T10:40:56.061Z,22.10
2018-04-19T10:43:22.126Z,22.20
2018-04-19T10:45:48.134Z,22.40
2018-04-19T10:48:14.861Z,22.50
2018-04-19T10:50:40.873Z,22.50
2018-04-19T10:53:06.848Z,22.80
2018-04-19T10:55:33.581Z,22.90
2018-04-19T10:58:00.301Z,23.00
2018-04-19T11:00:26.342Z,23.00
2018-04-19T11:02:53.069Z,23.20
2018-04-19T11:05:19.801Z,23.10
2018-04-19T11:07:45.768Z,23.00
2018-04-19T11:10:11.805Z,23.10
2018-04-19T11:12:38.512Z,23.40
2018-04-19T11:15:04.488Z,23.40
2018-04-19T11:17:30.500Z,23.60
2018-04-19T11:19:57.277Z,23.90
2018-04-19T11:22:23.273Z,23.90
2018-04-19T11:24:49.265Z,23.90
2018-04-19T11:27:15.367Z,24.10
2018-04-19T11:29:41.337Z,24.30
2018-04-19T11:32:07.320Z,24.50
2018-04-19T11:34:34.049Z,24.60
2018-04-19T11:37:00.789Z,24.60
2018-04-19T11:39:27.513Z,24.60
2018-04-19T11:41:53.523Z,24.60
2018-04-19T11:44:19.519Z,24.70
2018-04-19T11:46:45.509Z,24.40
2018-04-19T11:49:12.221Z,24.60
2018-04-19T11:51:39.697Z,24.40
2018-04-19T11:54:06.436Z,24.70
2018-04-19T11:56:33.185Z,24.70
2018-04-19T11:58:59.903Z,25.00
2018-04-19T12:01:26.644Z,25.10
2018-04-19T12:03:52.684Z,25.10
2018-04-19T12:06:18.668Z,25.30
2018-04-19T12:08:44.665Z,25.50
2018-04-19T12:11:10.636Z,25.40
2018-04-19T12:13:36.694Z,25.70
2018-04-19T12:16:02.609Z,25.70
2018-04-19T12:18:28.605Z,25.90
2018-04-19T12:20:55.284Z,26.00
2018-04-19T12:23:21.433Z,25.90
2018-04-19T12:25:47.411Z,26.10
2018-04-19T12:28:14.142Z,26.80
2018-04-19T12:30:40.117Z,26.70
2018-04-19T12:33:06.111Z,26.80
2018-04-19T12:35:32.081Z,26.70
2018-04-19T12:37:58.081Z,26.80
2018-04-19T12:40:24.097Z,26.20
2018-04-19T12:42:50.157Z,25.80
2018-04-19T12:45:16.127Z,25.90
2018-04-19T12:47:42.865Z,26.30
2018-04-19T12:50:09.597Z,26.80
2018-04-19T12:52:36.300Z,26.80
2018-04-19T12:55:02.440Z,26.80
2018-04-19T12:57:28.406Z,26.90
2018-04-19T12:59:54.393Z,26.30
2018-04-19T13:02:20.370Z,26.80
2018-04-19T13:04:46.366Z,27.20
2018-04-19T13:07:12.376Z,27.40
2018-04-19T13:09:39.101Z,27.60
2018-04-19T13:12:05.073Z,27.50
2018-04-19T13:14:31.062Z,27.40
2018-04-19T13:16:57.812Z,26.70
2018-04-19T13:19:24.557Z,27.10
2018-04-19T13:21:50.570Z,27.10
2018-04-19T13:24:18.160Z,27.20
2018-04-19T13:26:44.525Z,27.20
2018-04-19T13:29:10.525Z,27.20
2018-04-19T13:31:36.550Z,27.00
2018-04-19T13:34:02.554Z,27.00
2018-04-19T13:36:28.684Z,27.20
2018-04-19T13:38:54.692Z,27.90
2018-04-19T13:41:21.425Z,28.40
2018-04-19T13:43:48.165Z,27.80
2018-04-19T13:46:14.888Z,27.10
2018-04-19T13:48:41.611Z,27.20
2018-04-19T13:51:07.632Z,27.20
2018-04-19T13:53:33.620Z,27.30
2018-04-19T13:55:59.601Z,28.00
2018-04-19T13:58:25.576Z,28.30
2018-04-19T14:00:51.577Z,28.10
2018-04-19T14:03:17.557Z,27.70
2018-04-19T14:05:43.570Z,27.70
2018-04-19T14:08:10.335Z,27.40
2018-04-19T14:10:36.305Z,27.50
2018-04-19T14:13:02.544Z,28.10
2018-04-19T14:15:28.660Z,27.90
2018-04-19T14:17:54.629Z,27.40
2018-04-19T14:20:20.620Z,27.50
2018-04-19T14:22:46.598Z,27.50
2018-04-19T14:25:12.652Z,27.90
2018-04-19T14:27:38.644Z,27.90
2018-04-19T14:30:05.364Z,27.80
2018-04-19T14:32:31.368Z,27.80
2018-04-19T14:34:57.423Z,27.60
2018-04-19T14:37:24.146Z,28.10
2018-04-19T14:39:50.892Z,28.10
2018-04-19T14:42:16.873Z,28.00
2018-04-19T14:44:42.869Z,28.20
2018-04-19T14:47:09.580Z,28.30
2018-04-19T14:49:35.557Z,28.40
2018-04-19T14:52:01.547Z,28.70
2018-04-19T14:54:27.551Z,28.30
2018-04-19T14:56:54.278Z,28.10
2018-04-19T14:59:20.288Z,28.20
2018-04-19T15:01:46.296Z,28.10
2018-04-19T15:04:12.278Z,27.30
2018-04-19T15:06:39.021Z,26.90
2018-04-19T15:09:05.769Z,26.80
2018-04-19T15:11:32.533Z,26.60
2018-04-19T15:13:58.533Z,26.60
2018-04-19T15:16:25.616Z,28.10
2018-04-19T15:18:51.899Z,28.00
2018-04-19T15:21:17.920Z,28.00
2018-04-19T15:23:44.662Z,27.80
2018-04-19T15:26:10.632Z,27.80
2018-04-19T15:28:36.634Z,27.70
2018-04-19T15:31:02.633Z,28.20
2018-04-19T15:33:29.349Z,27.90
2018-04-19T15:35:56.845Z,27.70
2018-04-19T15:38:23.578Z,27.70
2018-04-19T15:40:50.298Z,28.40
2018-04-19T15:43:16.309Z,28.40
2018-04-19T15:45:42.317Z,28.80
2018-04-19T15:48:08.345Z,28.60
2018-04-19T15:50:34.365Z,28.50
2018-04-19T15:53:00.393Z,28.20
2018-04-19T15:55:26.405Z,28.20
2018-04-19T15:57:52.382Z,28.30
2018-04-19T16:00:19.152Z,27.60
2018-04-19T16:02:45.128Z,27.60
2018-04-19T16:05:11.105Z,27.60
2018-04-19T16:07:37.088Z,28.20
2018-04-19T16:10:03.826Z,28.20
2018-04-19T16:12:30.528Z,27.90
2018-04-19T16:14:56.492Z,27.90
2018-04-19T16:17:23.217Z,27.40
2018-04-19T16:19:49.952Z,27.80
2018-04-19T16:22:15.950Z,27.80
2018-04-19T16:24:41.957Z,28.00
2018-04-19T16:27:07.928Z,28.20
2018-04-19T16:29:34.127Z,27.90
2018-04-19T16:32:00.164Z,27.50
2018-04-19T16:34:26.470Z,26.80
2018-04-19T16:36:52.450Z,26.70
2018-04-19T16:39:18.474Z,26.90
2018-04-19T16:41:45.237Z,26.40
2018-04-19T16:44:11.212Z,26.40
2018-04-19T16:46:37.180Z,26.80
2018-04-19T16:49:03.149Z,27.20
2018-04-19T16:51:29.141Z,27.40
2018-04-19T16:53:55.136Z,27.60
2018-04-19T16:56:21.121Z,27.40
2018-04-19T16:58:47.179Z,27.10
2018-04-19T17:01:13.922Z,26.80
2018-04-19T17:03:39.891Z,26.80
2018-04-19T17:06:05.923Z,26.80
2018-04-19T17:08:31.878Z,27.00
2018-04-19T17:10:57.914Z,27.00
2018-04-19T17:13:24.689Z,26.50
2018-04-19T17:15:50.793Z,26.50
2018-04-19T17:18:16.999Z,26.30
2018-04-19T17:20:43.734Z,25.20
2018-04-19T17:23:10.465Z,25.50
2018-04-19T17:25:36.460Z,25.40
2018-04-19T17:28:02.431Z,25.90
2018-04-19T17:30:29.149Z,25.90
2018-04-19T17:32:55.203Z,25.80
2018-04-19T17:35:21.401Z,25.90
2018-04-19T17:37:47.408Z,25.90
2018-04-19T17:40:13.416Z,25.40
2018-04-19T17:42:39.460Z,25.60
2018-04-19T17:45:05.449Z,25.20
2018-04-19T17:47:31.431Z,24.90
2018-04-19T17:49:57.441Z,24.50
2018-04-19T17:52:23.425Z,24.50
2018-04-19T17:54:49.586Z,24.50
2018-04-19T17:57:15.617Z,24.40
2018-04-19T17:59:41.762Z,24.20
2018-04-19T18:02:07.988Z,24.20
2018-04-19T18:04:34.014Z,24.00
2018-04-19T18:07:00.773Z,23.50
2018-04-19T18:09:27.496Z,23.40
2018-04-19T18:11:54.243Z,23.30
2018-04-19T18:14:20.233Z,23.30
2018-04-19T18:16:46.217Z,23.30
2018-04-19T18:19:12.220Z,23.40
2018-04-19T18:21:38.943Z,23.10
2018-04-19T18:24:05.657Z,22.90
2018-04-19T18:26:31.660Z,22.90
2018-04-19T18:28:57.641Z,22.60
2018-04-19T18:31:23.629Z,22.40
2018-04-19T18:33:49.614Z,22.40
2018-04-19T18:36:15.609Z,22.30
2018-04-19T18:38:41.603Z,22.30
2018-04-19T18:41:07.599Z,22.10
2018-04-19T18:43:33.593Z,22.10
2018-04-19T18:45:59.577Z,22.00
2018-04-19T18:48:25.580Z,21.70
2018-04-19T18:50:51.568Z,21.50
2018-04-19T18:53:17.566Z,21.40
2018-04-19T18:55:44.816Z,21.10
2018-04-19T18:58:11.558Z,21.00
2018-04-19T19:00:38.316Z,21.10
2018-04-19T19:03:05.083Z,21.00
2018-04-19T19:05:31.369Z,21.00
2018-04-19T19:07:57.416Z,20.90
2018-04-19T19:10:23.593Z,20.80
2018-04-19T19:12:52.241Z,20.70
2018-04-19T19:15:38.548Z,20.60
2018-04-19T19:18:25.351Z,20.50
2018-04-19T19:20:51.363Z,20.40
2018-04-19T19:23:18.145Z,20.30
2018-04-19T19:25:44.265Z,20.30
2018-04-19T19:28:10.950Z,20.10
2018-04-19T19:30:37.932Z,20.10
2018-04-19T19:33:03.965Z,20.20
2018-04-19T19:35:29.945Z,19.80
2018-04-19T19:37:56.682Z,19.60
2018-04-19T19:40:23.448Z,19.60
2018-04-19T19:42:49.533Z,19.60
2018-04-19T19:45:16.277Z,19.60
2018-04-19T19:47:42.281Z,19.60
2018-04-19T19:50:08.645Z,19.50
2018-04-19T19:52:35.105Z,19.60
2018-04-19T19:55:02.200Z,19.40
2018-04-19T19:57:28.651Z,19.40
2018-04-19T19:59:56.005Z,19.30
2018-04-19T20:02:22.662Z,19.30
2018-04-19T20:04:49.449Z,18.90
2018-04-19T20:09:52.204Z,19.00
2018-04-19T20:12:18.202Z,18.90
2018-04-19T20:14:44.226Z,18.90
2018-04-19T20:17:10.644Z,18.90
2018-04-19T20:19:36.741Z,18.90
2018-04-19T20:22:04.011Z,18.90
2018-04-19T20:24:30.141Z,18.60
2018-04-19T20:26:56.126Z,18.60
2018-04-19T20:29:22.168Z,18.50
2018-04-19T20:31:48.151Z,18.50
2018-04-19T20:34:14.899Z,18.30
2018-04-19T20:36:41.756Z,18.30
2018-04-19T20:39:08.475Z,18.40
2018-04-19T20:41:35.230Z,18.40
2018-04-19T20:44:01.221Z,18.40
2018-04-19T20:46:27.271Z,18.40
2018-04-19T20:48:53.270Z,18.30
2018-04-19T20:51:19.285Z,18.30
2018-04-19T20:53:45.272Z,18.30
2018-04-19T20:56:11.241Z,18.30
2018-04-19T20:58:37.233Z,18.40
2018-04-19T21:01:03.233Z,18.50
2018-04-19T21:03:29.216Z,18.40
2018-04-19T21:05:55.953Z,18.30
2018-04-19T21:08:22.684Z,18.40
2018-04-19T21:10:48.661Z,18.30
2018-04-19T21:13:14.665Z,18.30
2018-04-19T21:15:40.645Z,18.30
2018-04-19T21:18:06.633Z,18.20
2018-04-19T21:20:32.601Z,18.00
2018-04-19T21:22:58.597Z,17.90
2018-04-19T21:25:24.589Z,17.90
2018-04-19T21:27:50.576Z,18.10
2018-04-19T21:30:16.573Z,18.20
2018-04-19T21:32:42.576Z,18.20
2018-04-19T21:35:08.665Z,18.10
2018-04-19T21:37:35.381Z,17.90
2018-04-19T21:40:01.374Z,17.90
2018-04-19T21:42:27.373Z,18.00
2018-04-19T21:44:53.356Z,17.90
2018-04-19T21:47:19.333Z,17.80
2018-04-19T21:49:45.327Z,17.80
2018-04-19T21:52:12.065Z,17.70
2018-04-19T21:54:38.029Z,17.70
2018-04-19T21:57:04.021Z,17.60
2018-04-19T21:59:30.747Z,17.70
2018-04-19T22:01:57.477Z,17.70
2018-04-19T22:04:23.452Z,17.80
2018-04-19T22:06:49.462Z,17.80
2018-04-19T22:09:15.443Z,17.70
2018-04-19T22:11:41.443Z,17.70
2018-04-19T22:14:07.461Z,17.70
2018-04-19T22:16:33.448Z,17.80
2018-04-19T22:18:59.490Z,17.80
2018-04-19T22:21:25.462Z,17.70
2018-04-19T22:23:51.461Z,17.70
2018-04-19T22:26:17.431Z,17.70
2018-04-19T22:28:44.197Z,17.60
2018-04-19T22:31:10.172Z,17.60
2018-04-19T22:33:36.150Z,17.60
2018-04-19T22:36:02.136Z,17.50
2018-04-19T22:38:28.870Z,17.60
2018-04-19T22:40:55.577Z,17.60
2018-04-19T22:43:21.572Z,17.60
2018-04-19T22:45:47.561Z,17.50
2018-04-19T22:48:14.301Z,17.60
2018-04-19T22:50:41.054Z,17.60
2018-04-19T22:53:07.025Z,17.60
2018-04-19T22:55:33.093Z,17.60
2018-04-19T22:57:59.808Z,17.40
2018-04-19T23:00:25.811Z,17.40
2018-04-19T23:02:51.786Z,17.50
2018-04-19T23:05:18.560Z,17.40
2018-04-19T23:07:45.460Z,17.30
2018-04-19T23:10:12.185Z,17.40
2018-04-19T23:12:38.230Z,17.40
2018-04-19T23:15:04.968Z,17.20
2018-04-19T23:17:31.706Z,17.30
2018-04-19T23:19:57.672Z,17.20
2018-04-19T23:22:24.472Z,17.30
2018-04-19T23:24:50.432Z,17.20
2018-04-19T23:27:16.392Z,17.20
2018-04-19T23:29:42.376Z,17.20
2018-04-19T23:32:08.362Z,17.10
2018-04-19T23:34:35.102Z,17.10
2018-04-19T23:37:01.813Z,17.10
2018-04-19T23:39:27.801Z,17.10
2018-04-19T23:41:53.832Z,17.10
2018-04-19T23:44:19.813Z,17.20
2018-04-19T23:46:45.797Z,17.10
2018-04-19T23:49:11.781Z,17.10
2018-04-19T23:51:37.765Z,16.90
2018-04-19T23:54:03.748Z,17.00
2018-04-19T23:56:29.725Z,17.10
2018-04-19T23:58:56.451Z,17.10
